sensor_id;sensor_type;location;lat;lon;timestamp;pressure;altitude;pressure_sealevel;temperature;humidity
84032;BME280;74113;46.556;24.570;2024-01-16T00:01:12;96672.03;;;2.32;72.68
84032;BME280;74113;46.556;24.570;2024-01-16T00:03:45;96663.31;;;2.31;72.02
84032;BME280;74113;46.556;24.570;2024-01-16T00:06:14;96654.81;;;2.30;72.82
84032;BME280;74113;46.556;24.570;2024-01-16T00:08:43;96651.90;;;2.25;72.75
84032;BME280;74113;46.556;24.570;2024-01-16T00:11:11;96648.27;;;2.20;72.72
84032;BME280;74113;46.556;24.570;2024-01-16T00:13:40;96646.67;;;2.17;72.86
84032;BME280;74113;46.556;24.570;2024-01-16T00:16:08;96661.09;;;2.15;72.49
84032;BME280;74113;46.556;24.570;2024-01-16T00:18:37;96674.47;;;2.14;72.30
84032;BME280;74113;46.556;24.570;2024-01-16T00:21:05;96670.50;;;2.16;72.35
84032;BME280;74113;46.556;24.570;2024-01-16T00:23:33;96661.73;;;2.17;72.57
84032;BME280;74113;46.556;24.570;2024-01-16T00:26:02;96651.84;;;2.16;72.34
84032;BME280;74113;46.556;24.570;2024-01-16T00:28:32;96659.52;;;2.16;72.20
84032;BME280;74113;46.556;24.570;2024-01-16T00:31:01;96669.23;;;2.18;71.88
84032;BME280;74113;46.556;24.570;2024-01-16T00:33:36;96665.17;;;2.17;71.94
84032;BME280;74113;46.556;24.570;2024-01-16T00:36:06;96668.27;;;2.16;71.89
84032;BME280;74113;46.556;24.570;2024-01-16T00:38:35;96669.70;;;2.13;72.17
84032;BME280;74113;46.556;24.570;2024-01-16T00:41:03;96673.38;;;2.11;71.95
84032;BME280;74113;46.556;24.570;2024-01-16T00:43:32;96681.64;;;2.09;71.37
84032;BME280;74113;46.556;24.570;2024-01-16T00:46:03;96685.59;;;2.09;71.75
84032;BME280;74113;46.556;24.570;2024-01-16T00:48:32;96690.86;;;2.04;71.95
84032;BME280;74113;46.556;24.570;2024-01-16T00:51:00;96693.72;;;2.05;72.02
84032;BME280;74113;46.556;24.570;2024-01-16T00:53:28;96690.92;;;2.07;71.77
84032;BME280;74113;46.556;24.570;2024-01-16T00:55:57;96693.13;;;2.14;72.02
84032;BME280;74113;46.556;24.570;2024-01-16T00:58:26;96702.52;;;2.20;72.29
84032;BME280;74113;46.556;24.570;2024-01-16T01:00:54;96705.00;;;2.23;72.33
84032;BME280;74113;46.556;24.570;2024-01-16T01:03:23;96705.95;;;2.25;72.00
84032;BME280;74113;46.556;24.570;2024-01-16T01:05:52;96696.31;;;2.27;71.48
84032;BME280;74113;46.556;24.570;2024-01-16T01:08:21;96699.41;;;2.27;71.45
84032;BME280;74113;46.556;24.570;2024-01-16T01:10:49;96698.27;;;2.25;71.32
84032;BME280;74113;46.556;24.570;2024-01-16T01:13:18;96688.64;;;2.21;71.71
84032;BME280;74113;46.556;24.570;2024-01-16T01:15:47;96691.45;;;2.19;71.83
84032;BME280;74113;46.556;24.570;2024-01-16T01:18:15;96683.98;;;2.17;71.78
84032;BME280;74113;46.556;24.570;2024-01-16T01:20:44;96683.73;;;2.14;71.81
84032;BME280;74113;46.556;24.570;2024-01-16T01:23:13;96689.17;;;2.14;71.89
84032;BME280;74113;46.556;24.570;2024-01-16T01:25:41;96690.64;;;2.12;72.17
84032;BME280;74113;46.556;24.570;2024-01-16T01:28:11;96695.30;;;2.10;72.03
84032;BME280;74113;46.556;24.570;2024-01-16T01:30:39;96687.77;;;2.10;72.18
84032;BME280;74113;46.556;24.570;2024-01-16T01:33:08;96686.92;;;2.10;72.26
84032;BME280;74113;46.556;24.570;2024-01-16T01:35:36;96683.21;;;2.14;72.21
84032;BME280;74113;46.556;24.570;2024-01-16T01:38:05;96683.91;;;2.19;72.57
84032;BME280;74113;46.556;24.570;2024-01-16T01:40:36;96678.92;;;2.25;72.57
84032;BME280;74113;46.556;24.570;2024-01-16T01:43:17;96673.46;;;2.30;72.38
84032;BME280;74113;46.556;24.570;2024-01-16T01:46:09;96686.54;;;2.33;71.97
84032;BME280;74113;46.556;24.570;2024-01-16T01:48:40;96691.04;;;2.32;71.63
84032;BME280;74113;46.556;24.570;2024-01-16T01:51:14;96696.23;;;2.30;71.46
84032;BME280;74113;46.556;24.570;2024-01-16T01:53:44;96703.70;;;2.31;71.18
84032;BME280;74113;46.556;24.570;2024-01-16T01:56:18;96704.87;;;2.33;70.93
84032;BME280;74113;46.556;24.570;2024-01-16T01:58:47;96705.20;;;2.33;71.15
84032;BME280;74113;46.556;24.570;2024-01-16T02:01:19;96710.90;;;2.31;71.16
84032;BME280;74113;46.556;24.570;2024-01-16T02:03:51;96717.31;;;2.29;71.23
84032;BME280;74113;46.556;24.570;2024-01-16T02:06:20;96719.98;;;2.25;71.53
84032;BME280;74113;46.556;24.570;2024-01-16T02:08:49;96722.30;;;2.23;71.31
84032;BME280;74113;46.556;24.570;2024-01-16T02:11:18;96721.77;;;2.23;71.38
84032;BME280;74113;46.556;24.570;2024-01-16T02:13:47;96717.39;;;2.26;71.71
84032;BME280;74113;46.556;24.570;2024-01-16T02:18:47;96716.24;;;2.30;72.05
84032;BME280;74113;46.556;24.570;2024-01-16T02:21:24;96718.30;;;2.30;71.96
84032;BME280;74113;46.556;24.570;2024-01-16T02:23:54;96723.13;;;2.29;72.08
84032;BME280;74113;46.556;24.570;2024-01-16T02:26:23;96729.59;;;2.30;71.98
84032;BME280;74113;46.556;24.570;2024-01-16T02:28:51;96736.07;;;2.31;72.25
84032;BME280;74113;46.556;24.570;2024-01-16T02:31:21;96742.38;;;2.31;72.04
84032;BME280;74113;46.556;24.570;2024-01-16T02:33:49;96742.31;;;2.33;72.19
84032;BME280;74113;46.556;24.570;2024-01-16T02:36:18;96742.27;;;2.35;71.78
84032;BME280;74113;46.556;24.570;2024-01-16T02:38:46;96741.98;;;2.33;72.04
84032;BME280;74113;46.556;24.570;2024-01-16T02:41:15;96747.17;;;2.31;72.39
84032;BME280;74113;46.556;24.570;2024-01-16T02:43:45;96743.83;;;2.29;72.43
84032;BME280;74113;46.556;24.570;2024-01-16T02:46:14;96750.85;;;2.28;71.96
84032;BME280;74113;46.556;24.570;2024-01-16T02:48:43;96760.88;;;2.26;71.48
84032;BME280;74113;46.556;24.570;2024-01-16T02:51:12;96756.18;;;2.22;71.88
84032;BME280;74113;46.556;24.570;2024-01-16T02:53:41;96742.80;;;2.18;72.79
84032;BME280;74113;46.556;24.570;2024-01-16T02:56:10;96753.38;;;2.18;72.13
84032;BME280;74113;46.556;24.570;2024-01-16T02:58:38;96756.54;;;2.22;72.59
84032;BME280;74113;46.556;24.570;2024-01-16T03:01:07;96759.26;;;2.22;72.81
84032;BME280;74113;46.556;24.570;2024-01-16T03:03:35;96767.63;;;2.23;72.79
84032;BME280;74113;46.556;24.570;2024-01-16T03:06:04;96768.80;;;2.24;72.80
84032;BME280;74113;46.556;24.570;2024-01-16T03:08:33;96765.38;;;2.24;72.68
84032;BME280;74113;46.556;24.570;2024-01-16T03:11:01;96763.73;;;2.27;72.47
84032;BME280;74113;46.556;24.570;2024-01-16T03:13:30;96771.97;;;2.32;72.57
84032;BME280;74113;46.556;24.570;2024-01-16T03:15:59;96783.90;;;2.33;72.30
84032;BME280;74113;46.556;24.570;2024-01-16T03:18:28;96791.38;;;2.29;72.27
84032;BME280;74113;46.556;24.570;2024-01-16T03:20:58;96793.98;;;2.17;72.46
84032;BME280;74113;46.556;24.570;2024-01-16T03:23:27;96792.48;;;2.09;72.26
84032;BME280;74113;46.556;24.570;2024-01-16T03:25:56;96793.83;;;2.04;72.32
84032;BME280;74113;46.556;24.570;2024-01-16T03:28:26;96803.25;;;1.97;72.73
84032;BME280;74113;46.556;24.570;2024-01-16T03:30:54;96819.15;;;1.92;72.86
84032;BME280;74113;46.556;24.570;2024-01-16T03:33:23;96823.63;;;1.91;72.60
84032;BME280;74113;46.556;24.570;2024-01-16T03:35:53;96836.11;;;1.91;73.01
84032;BME280;74113;46.556;24.570;2024-01-16T03:38:21;96846.55;;;1.91;73.50
84032;BME280;74113;46.556;24.570;2024-01-16T03:40:50;96839.84;;;1.91;73.30
84032;BME280;74113;46.556;24.570;2024-01-16T03:43:19;96824.36;;;1.88;73.11
84032;BME280;74113;46.556;24.570;2024-01-16T03:45:48;96832.01;;;1.91;72.94
84032;BME280;74113;46.556;24.570;2024-01-16T03:48:16;96828.72;;;1.92;72.91
84032;BME280;74113;46.556;24.570;2024-01-16T03:50:45;96814.76;;;1.90;73.49
84032;BME280;74113;46.556;24.570;2024-01-16T03:53:15;96801.39;;;1.85;73.51
84032;BME280;74113;46.556;24.570;2024-01-16T03:55:44;96799.94;;;1.81;72.96
84032;BME280;74113;46.556;24.570;2024-01-16T03:58:12;96807.41;;;1.78;73.17
84032;BME280;74113;46.556;24.570;2024-01-16T04:00:41;96811.73;;;1.76;72.90
84032;BME280;74113;46.556;24.570;2024-01-16T04:03:10;96806.64;;;1.74;73.35
84032;BME280;74113;46.556;24.570;2024-01-16T04:05:40;96811.20;;;1.70;73.19
84032;BME280;74113;46.556;24.570;2024-01-16T04:08:09;96830.98;;;1.72;73.02
84032;BME280;74113;46.556;24.570;2024-01-16T04:10:37;96838.65;;;1.73;73.32
84032;BME280;74113;46.556;24.570;2024-01-16T04:13:05;96843.14;;;1.71;73.27
84032;BME280;74113;46.556;24.570;2024-01-16T04:15:38;96849.08;;;1.67;73.00
84032;BME280;74113;46.556;24.570;2024-01-16T04:18:07;96853.85;;;1.60;72.75
84032;BME280;74113;46.556;24.570;2024-01-16T04:20:36;96860.44;;;1.57;72.91
84032;BME280;74113;46.556;24.570;2024-01-16T04:23:05;96861.88;;;1.54;72.89
84032;BME280;74113;46.556;24.570;2024-01-16T04:25:34;96868.91;;;1.53;72.63
84032;BME280;74113;46.556;24.570;2024-01-16T04:28:02;96875.98;;;1.51;72.74
84032;BME280;74113;46.556;24.570;2024-01-16T04:30:31;96872.69;;;1.46;72.88
84032;BME280;74113;46.556;24.570;2024-01-16T04:33:00;96877.86;;;1.44;72.95
84032;BME280;74113;46.556;24.570;2024-01-16T04:35:28;96883.46;;;1.39;72.85
84032;BME280;74113;46.556;24.570;2024-01-16T04:37:57;96881.85;;;1.35;72.81
84032;BME280;74113;46.556;24.570;2024-01-16T04:40:26;96876.93;;;1.33;72.84
84032;BME280;74113;46.556;24.570;2024-01-16T04:42:55;96878.48;;;1.32;72.97
84032;BME280;74113;46.556;24.570;2024-01-16T04:45:23;96877.79;;;1.33;73.16
84032;BME280;74113;46.556;24.570;2024-01-16T04:47:51;96887.70;;;1.34;73.30
84032;BME280;74113;46.556;24.570;2024-01-16T04:50:20;96889.30;;;1.31;73.33
84032;BME280;74113;46.556;24.570;2024-01-16T04:52:48;96891.20;;;1.30;73.11
84032;BME280;74113;46.556;24.570;2024-01-16T04:55:20;96901.53;;;1.27;72.78
84032;BME280;74113;46.556;24.570;2024-01-16T04:57:49;96910.03;;;1.22;72.69
84032;BME280;74113;46.556;24.570;2024-01-16T05:00:18;96915.93;;;1.17;72.95
84032;BME280;74113;46.556;24.570;2024-01-16T05:02:50;96923.80;;;1.17;72.93
84032;BME280;74113;46.556;24.570;2024-01-16T05:05:21;96932.27;;;1.19;72.70
84032;BME280;74113;46.556;24.570;2024-01-16T05:07:52;96936.73;;;1.19;72.76
84032;BME280;74113;46.556;24.570;2024-01-16T05:10:20;96942.05;;;1.18;72.89
84032;BME280;74113;46.556;24.570;2024-01-16T05:12:49;96941.78;;;1.15;72.82
84032;BME280;74113;46.556;24.570;2024-01-16T05:15:17;96952.09;;;1.12;72.89
84032;BME280;74113;46.556;24.570;2024-01-16T05:17:46;96961.07;;;1.15;72.84
84032;BME280;74113;46.556;24.570;2024-01-16T05:20:15;96964.07;;;1.18;73.10
84032;BME280;74113;46.556;24.570;2024-01-16T05:22:43;96966.56;;;1.22;73.24
84032;BME280;74113;46.556;24.570;2024-01-16T05:25:12;96971.39;;;1.27;73.03
84032;BME280;74113;46.556;24.570;2024-01-16T05:27:40;96976.27;;;1.31;73.28
84032;BME280;74113;46.556;24.570;2024-01-16T05:30:10;96974.13;;;1.34;73.40
84032;BME280;74113;46.556;24.570;2024-01-16T05:32:40;96980.39;;;1.37;73.43
84032;BME280;74113;46.556;24.570;2024-01-16T05:35:10;96983.23;;;1.39;73.27
84032;BME280;74113;46.556;24.570;2024-01-16T05:37:38;96990.00;;;1.57;73.81
84032;BME280;74113;46.556;24.570;2024-01-16T05:40:08;96995.02;;;2.03;73.04
84032;BME280;74113;46.556;24.570;2024-01-16T05:42:38;97000.35;;;2.29;71.71
84032;BME280;74113;46.556;24.570;2024-01-16T05:45:07;97005.58;;;2.38;70.79
84032;BME280;74113;46.556;24.570;2024-01-16T05:47:36;97009.50;;;2.38;70.73
84032;BME280;74113;46.556;24.570;2024-01-16T05:50:06;97014.27;;;2.33;71.30
84032;BME280;74113;46.556;24.570;2024-01-16T05:52:37;97011.30;;;2.35;71.16
84032;BME280;74113;46.556;24.570;2024-01-16T05:55:10;97013.95;;;2.31;70.95
84032;BME280;74113;46.556;24.570;2024-01-16T05:57:40;97018.27;;;2.24;71.13
84032;BME280;74113;46.556;24.570;2024-01-16T06:00:10;97026.83;;;2.17;71.09
84032;BME280;74113;46.556;24.570;2024-01-16T06:02:41;97028.39;;;2.10;70.94
84032;BME280;74113;46.556;24.570;2024-01-16T06:05:10;97037.48;;;2.01;71.20
84032;BME280;74113;46.556;24.570;2024-01-16T06:07:40;97045.63;;;1.97;71.14
84032;BME280;74113;46.556;24.570;2024-01-16T06:10:12;97049.94;;;1.96;71.65
84032;BME280;74113;46.556;24.570;2024-01-16T06:12:42;97053.45;;;1.99;71.78
84032;BME280;74113;46.556;24.570;2024-01-16T06:15:11;97061.38;;;1.96;72.14
84032;BME280;74113;46.556;24.570;2024-01-16T06:17:41;97060.42;;;1.87;72.13
84032;BME280;74113;46.556;24.570;2024-01-16T06:20:10;97064.34;;;1.80;71.97
84032;BME280;74113;46.556;24.570;2024-01-16T06:22:39;97069.52;;;1.85;72.16
84032;BME280;74113;46.556;24.570;2024-01-16T06:25:08;97071.96;;;1.90;72.32
84032;BME280;74113;46.556;24.570;2024-01-16T06:27:37;97076.31;;;2.01;71.60
84032;BME280;74113;46.556;24.570;2024-01-16T06:30:06;97083.28;;;2.03;71.15
84032;BME280;74113;46.556;24.570;2024-01-16T06:32:37;97088.02;;;2.05;71.49
84032;BME280;74113;46.556;24.570;2024-01-16T06:35:06;97099.50;;;2.11;71.47
84032;BME280;74113;46.556;24.570;2024-01-16T06:37:36;97101.05;;;2.19;71.89
84032;BME280;74113;46.556;24.570;2024-01-16T06:40:05;97106.73;;;2.31;70.96
84032;BME280;74113;46.556;24.570;2024-01-16T06:42:34;97114.27;;;2.30;70.26
84032;BME280;74113;46.556;24.570;2024-01-16T06:45:04;97123.02;;;2.23;70.36
84032;BME280;74113;46.556;24.570;2024-01-16T06:47:35;97121.49;;;2.22;71.65
84032;BME280;74113;46.556;24.570;2024-01-16T06:50:05;97124.45;;;2.34;70.58
84032;BME280;74113;46.556;24.570;2024-01-16T06:52:35;97129.20;;;2.43;69.35
84032;BME280;74113;46.556;24.570;2024-01-16T06:55:04;97133.64;;;2.36;69.62
84032;BME280;74113;46.556;24.570;2024-01-16T06:57:33;97139.95;;;2.30;69.48
84032;BME280;74113;46.556;24.570;2024-01-16T07:00:02;97141.79;;;2.25;69.58
84032;BME280;74113;46.556;24.570;2024-01-16T07:02:31;97142.77;;;2.20;69.49
84032;BME280;74113;46.556;24.570;2024-01-16T07:05:00;97145.73;;;2.18;69.44
84032;BME280;74113;46.556;24.570;2024-01-16T07:07:29;97146.30;;;2.23;68.82
84032;BME280;74113;46.556;24.570;2024-01-16T07:09:59;97151.13;;;2.21;68.99
84032;BME280;74113;46.556;24.570;2024-01-16T07:12:27;97156.66;;;2.26;69.75
84032;BME280;74113;46.556;24.570;2024-01-16T07:14:56;97158.22;;;2.39;69.32
84032;BME280;74113;46.556;24.570;2024-01-16T07:17:25;97159.61;;;2.52;68.81
84032;BME280;74113;46.556;24.570;2024-01-16T07:19:54;97161.07;;;2.63;68.91
84032;BME280;74113;46.556;24.570;2024-01-16T07:22:23;97162.34;;;2.66;67.65
84032;BME280;74113;46.556;24.570;2024-01-16T07:24:51;97170.30;;;2.63;67.24
84032;BME280;74113;46.556;24.570;2024-01-16T07:27:20;97179.85;;;2.57;67.87
84032;BME280;74113;46.556;24.570;2024-01-16T07:29:49;97182.77;;;2.57;69.55
84032;BME280;74113;46.556;24.570;2024-01-16T07:32:17;97191.95;;;2.67;68.32
84032;BME280;74113;46.556;24.570;2024-01-16T07:34:48;97194.92;;;2.64;67.79
84032;BME280;74113;46.556;24.570;2024-01-16T07:37:16;97196.74;;;2.60;67.70
84032;BME280;74113;46.556;24.570;2024-01-16T07:39:46;97198.16;;;2.51;67.41
84032;BME280;74113;46.556;24.570;2024-01-16T07:42:14;97206.13;;;2.47;67.18
84032;BME280;74113;46.556;24.570;2024-01-16T07:44:43;97211.36;;;2.43;67.35
84032;BME280;74113;46.556;24.570;2024-01-16T07:47:12;97208.23;;;2.38;67.63
84032;BME280;74113;46.556;24.570;2024-01-16T07:49:40;97208.48;;;2.34;67.07
84032;BME280;74113;46.556;24.570;2024-01-16T07:52:10;97217.98;;;2.38;67.85
84032;BME280;74113;46.556;24.570;2024-01-16T07:54:41;97221.98;;;2.43;67.39
84032;BME280;74113;46.556;24.570;2024-01-16T07:57:11;97222.81;;;2.43;67.71
84032;BME280;74113;46.556;24.570;2024-01-16T07:59:41;97223.83;;;2.37;67.69
84032;BME280;74113;46.556;24.570;2024-01-16T08:02:11;97230.44;;;2.32;66.39
84032;BME280;74113;46.556;24.570;2024-01-16T08:04:40;97229.17;;;2.35;66.69
84032;BME280;74113;46.556;24.570;2024-01-16T08:07:10;97238.57;;;2.36;66.20
84032;BME280;74113;46.556;24.570;2024-01-16T08:09:43;97246.11;;;2.35;66.11
84032;BME280;74113;46.556;24.570;2024-01-16T08:12:12;97248.16;;;2.35;66.63
84032;BME280;74113;46.556;24.570;2024-01-16T08:14:41;97253.15;;;2.35;66.96
84032;BME280;74113;46.556;24.570;2024-01-16T08:17:12;97257.98;;;2.33;66.25
84032;BME280;74113;46.556;24.570;2024-01-16T08:19:42;97263.30;;;2.31;66.56
84032;BME280;74113;46.556;24.570;2024-01-16T08:22:11;97270.83;;;2.32;66.68
84032;BME280;74113;46.556;24.570;2024-01-16T08:24:40;97271.98;;;2.34;66.64
84032;BME280;74113;46.556;24.570;2024-01-16T08:27:09;97273.30;;;2.37;66.59
84032;BME280;74113;46.556;24.570;2024-01-16T08:29:38;97274.52;;;2.36;66.47
84032;BME280;74113;46.556;24.570;2024-01-16T08:32:06;97280.02;;;2.35;66.28
84032;BME280;74113;46.556;24.570;2024-01-16T08:34:35;97280.17;;;2.36;66.88
84032;BME280;74113;46.556;24.570;2024-01-16T08:37:04;97287.08;;;2.33;66.52
84032;BME280;74113;46.556;24.570;2024-01-16T08:39:33;97292.23;;;2.31;66.36
84032;BME280;74113;46.556;24.570;2024-01-16T08:42:03;97299.23;;;2.33;65.79
84032;BME280;74113;46.556;24.570;2024-01-16T08:44:33;97297.48;;;2.35;65.97
84032;BME280;74113;46.556;24.570;2024-01-16T08:47:02;97301.31;;;2.39;65.76
84032;BME280;74113;46.556;24.570;2024-01-16T08:49:34;97306.63;;;2.46;66.62
84032;BME280;74113;46.556;24.570;2024-01-16T08:52:03;97311.20;;;2.56;67.25
84032;BME280;74113;46.556;24.570;2024-01-16T08:54:33;97316.38;;;2.62;65.96
84032;BME280;74113;46.556;24.570;2024-01-16T08:57:03;97318.30;;;2.68;66.25
84032;BME280;74113;46.556;24.570;2024-01-16T08:59:33;97319.64;;;2.77;65.97
84032;BME280;74113;46.556;24.570;2024-01-16T09:02:02;97317.83;;;2.82;65.27
84032;BME280;74113;46.556;24.570;2024-01-16T09:04:32;97320.08;;;2.80;65.03
84032;BME280;74113;46.556;24.570;2024-01-16T09:07:01;97327.23;;;2.82;65.25
84032;BME280;74113;46.556;24.570;2024-01-16T09:09:33;97334.11;;;2.88;65.46
84032;BME280;74113;46.556;24.570;2024-01-16T09:12:02;97337.64;;;2.98;66.14
84032;BME280;74113;46.556;24.570;2024-01-16T09:14:32;97344.03;;;3.03;64.93
84032;BME280;74113;46.556;24.570;2024-01-16T09:17:02;97342.58;;;3.07;64.60
84032;BME280;74113;46.556;24.570;2024-01-16T09:19:51;97338.00;;;3.11;64.58
84032;BME280;74113;46.556;24.570;2024-01-16T09:24:09;97343.19;;;3.17;64.00
84032;BME280;74113;46.556;24.570;2024-01-16T09:26:41;97348.95;;;3.20;63.56
84032;BME280;74113;46.556;24.570;2024-01-16T09:29:10;97348.35;;;3.17;64.52
84032;BME280;74113;46.556;24.570;2024-01-16T09:31:39;97348.00;;;3.16;64.13
84032;BME280;74113;46.556;24.570;2024-01-16T09:34:08;97347.11;;;3.18;63.88
84032;BME280;74113;46.556;24.570;2024-01-16T09:36:38;97347.94;;;3.19;63.86
84032;BME280;74113;46.556;24.570;2024-01-16T09:39:07;97346.34;;;3.22;63.71
84032;BME280;74113;46.556;24.570;2024-01-16T09:41:39;97351.95;;;3.23;62.70
84032;BME280;74113;46.556;24.570;2024-01-16T09:44:08;97359.02;;;3.29;63.12
84032;BME280;74113;46.556;24.570;2024-01-16T09:46:38;97358.94;;;3.32;62.70
84032;BME280;74113;46.556;24.570;2024-01-16T09:49:09;97358.75;;;3.32;63.17
84032;BME280;74113;46.556;24.570;2024-01-16T09:51:39;97363.27;;;3.38;62.79
84032;BME280;74113;46.556;24.570;2024-01-16T09:54:09;97364.92;;;3.39;60.85
84032;BME280;74113;46.556;24.570;2024-01-16T09:56:42;97366.89;;;3.43;60.42
84032;BME280;74113;46.556;24.570;2024-01-16T09:59:15;97373.09;;;3.49;61.74
84032;BME280;74113;46.556;24.570;2024-01-16T10:01:49;97370.71;;;3.48;61.43
84032;BME280;74113;46.556;24.570;2024-01-16T10:04:22;97375.89;;;3.46;61.52
84032;BME280;74113;46.556;24.570;2024-01-16T10:06:54;97373.33;;;3.46;61.74
84032;BME280;74113;46.556;24.570;2024-01-16T10:09:27;97377.41;;;3.54;60.89
84032;BME280;74113;46.556;24.570;2024-01-16T10:11:57;97380.66;;;3.61;59.66
84032;BME280;74113;46.556;24.570;2024-01-16T10:14:28;97376.56;;;3.61;60.40
84032;BME280;74113;46.556;24.570;2024-01-16T10:17:02;97377.39;;;3.55;60.54
84032;BME280;74113;46.556;24.570;2024-01-16T10:19:34;97376.88;;;3.55;59.28
84032;BME280;74113;46.556;24.570;2024-01-16T10:22:25;97384.45;;;3.60;59.07
84032;BME280;74113;46.556;24.570;2024-01-16T10:25:16;97382.99;;;3.64;60.47
84032;BME280;74113;46.556;24.570;2024-01-16T10:28:05;97377.61;;;3.66;60.08
84032;BME280;74113;46.556;24.570;2024-01-16T10:30:38;97370.54;;;3.75;58.85
84032;BME280;74113;46.556;24.570;2024-01-16T10:33:16;97379.34;;;3.79;58.71
84032;BME280;74113;46.556;24.570;2024-01-16T10:35:50;97382.02;;;3.88;58.64
84032;BME280;74113;46.556;24.570;2024-01-16T10:38:21;97388.71;;;3.95;59.53
84032;BME280;74113;46.556;24.570;2024-01-16T10:41:15;97385.58;;;3.96;58.00
84032;BME280;74113;46.556;24.570;2024-01-16T10:43:50;97388.95;;;3.99;57.90
84032;BME280;74113;46.556;24.570;2024-01-16T10:46:36;97394.15;;;4.03;59.05
84032;BME280;74113;46.556;24.570;2024-01-16T10:49:10;97396.06;;;4.02;59.39
84032;BME280;74113;46.556;24.570;2024-01-16T10:51:42;97392.50;;;4.01;59.43
84032;BME280;74113;46.556;24.570;2024-01-16T10:54:13;97389.37;;;3.95;58.43
84032;BME280;74113;46.556;24.570;2024-01-16T10:56:45;97391.58;;;3.97;58.32
84032;BME280;74113;46.556;24.570;2024-01-16T10:59:34;97379.15;;;4.06;59.21
84032;BME280;74113;46.556;24.570;2024-01-16T11:02:10;97380.69;;;3.99;57.54
84032;BME280;74113;46.556;24.570;2024-01-16T11:04:43;97382.70;;;4.01;58.59
84032;BME280;74113;46.556;24.570;2024-01-16T11:07:16;97383.30;;;4.05;58.30
84032;BME280;74113;46.556;24.570;2024-01-16T11:09:46;97382.88;;;4.13;58.33
84032;BME280;74113;46.556;24.570;2024-01-16T11:12:16;97376.92;;;4.11;57.42
84032;BME280;74113;46.556;24.570;2024-01-16T11:14:48;97382.23;;;4.05;57.48
84032;BME280;74113;46.556;24.570;2024-01-16T11:17:21;97388.54;;;3.94;57.15
84032;BME280;74113;46.556;24.570;2024-01-16T11:19:52;97391.84;;;3.87;57.66
84032;BME280;74113;46.556;24.570;2024-01-16T11:22:45;97396.27;;;3.87;58.05
84032;BME280;74113;46.556;24.570;2024-01-16T11:25:16;97401.86;;;3.84;57.43
84032;BME280;74113;46.556;24.570;2024-01-16T11:27:46;97405.60;;;3.92;57.76
84032;BME280;74113;46.556;24.570;2024-01-16T11:30:30;97404.20;;;4.06;57.65
84032;BME280;74113;46.556;24.570;2024-01-16T11:33:06;97407.73;;;4.21;57.31
84032;BME280;74113;46.556;24.570;2024-01-16T11:35:55;97415.21;;;4.30;56.71
84032;BME280;74113;46.556;24.570;2024-01-16T11:38:24;97417.50;;;4.34;56.74
84032;BME280;74113;46.556;24.570;2024-01-16T11:40:57;97417.95;;;4.37;56.59
84032;BME280;74113;46.556;24.570;2024-01-16T11:46:08;97426.05;;;4.42;56.92
84032;BME280;74113;46.556;24.570;2024-01-16T11:48:37;97431.17;;;4.31;57.16
84032;BME280;74113;46.556;24.570;2024-01-16T11:51:25;97433.44;;;4.23;57.33
84032;BME280;74113;46.556;24.570;2024-01-16T11:53:55;97435.92;;;4.27;58.08
84032;BME280;74113;46.556;24.570;2024-01-16T11:59:32;97436.29;;;4.06;57.81
84032;BME280;74113;46.556;24.570;2024-01-16T12:02:14;97433.05;;;3.99;58.04
84032;BME280;74113;46.556;24.570;2024-01-16T12:04:53;97435.84;;;3.97;57.82
84032;BME280;74113;46.556;24.570;2024-01-16T12:07:27;97438.73;;;3.98;57.66
84032;BME280;74113;46.556;24.570;2024-01-16T12:10:00;97440.13;;;3.97;57.45
84032;BME280;74113;46.556;24.570;2024-01-16T12:12:30;97443.07;;;4.03;57.83
84032;BME280;74113;46.556;24.570;2024-01-16T12:15:01;97446.90;;;4.07;57.94
84032;BME280;74113;46.556;24.570;2024-01-16T12:17:33;97441.91;;;4.14;57.95
84032;BME280;74113;46.556;24.570;2024-01-16T12:20:18;97450.24;;;4.24;58.87
84032;BME280;74113;46.556;24.570;2024-01-16T12:22:59;97453.20;;;4.41;58.34
84032;BME280;74113;46.556;24.570;2024-01-16T12:25:30;97459.38;;;4.48;57.82
84032;BME280;74113;46.556;24.570;2024-01-16T12:28:22;97450.18;;;4.39;57.30
84032;BME280;74113;46.556;24.570;2024-01-16T12:31:00;97448.58;;;4.41;57.93
84032;BME280;74113;46.556;24.570;2024-01-16T12:33:34;97443.73;;;4.36;57.08
84032;BME280;74113;46.556;24.570;2024-01-16T12:36:17;97449.64;;;4.28;56.48
84032;BME280;74113;46.556;24.570;2024-01-16T12:38:54;97450.98;;;4.22;57.66
84032;BME280;74113;46.556;24.570;2024-01-16T12:41:37;97453.93;;;4.21;58.30
84032;BME280;74113;46.556;24.570;2024-01-16T12:44:12;97457.20;;;4.21;58.09
84032;BME280;74113;46.556;24.570;2024-01-16T12:46:57;97460.25;;;4.15;57.71
84032;BME280;74113;46.556;24.570;2024-01-16T12:49:26;97462.81;;;4.23;58.05
84032;BME280;74113;46.556;24.570;2024-01-16T12:52:18;97465.31;;;4.25;58.32
84032;BME280;74113;46.556;24.570;2024-01-16T12:54:48;97463.30;;;4.24;57.91
84032;BME280;74113;46.556;24.570;2024-01-16T12:57:21;97467.84;;;4.27;57.70
84032;BME280;74113;46.556;24.570;2024-01-16T12:59:52;97467.82;;;4.34;57.03
84032;BME280;74113;46.556;24.570;2024-01-16T13:02:28;97470.45;;;4.39;57.00
84032;BME280;74113;46.556;24.570;2024-01-16T13:05:26;97474.91;;;4.45;57.37
84032;BME280;74113;46.556;24.570;2024-01-16T13:08:02;97474.84;;;4.41;57.29
84032;BME280;74113;46.556;24.570;2024-01-16T13:10:31;97475.55;;;4.34;57.59
84032;BME280;74113;46.556;24.570;2024-01-16T13:13:15;97480.91;;;4.26;57.69
84032;BME280;74113;46.556;24.570;2024-01-16T13:15:48;97480.98;;;4.17;58.43
84032;BME280;74113;46.556;24.570;2024-01-16T13:18:23;97477.44;;;4.14;58.70
84032;BME280;74113;46.556;24.570;2024-01-16T13:20:55;97483.30;;;4.13;58.26
84032;BME280;74113;46.556;24.570;2024-01-16T13:23:24;97488.22;;;4.09;58.01
84032;BME280;74113;46.556;24.570;2024-01-16T13:25:54;97491.11;;;4.10;57.24
84032;BME280;74113;46.556;24.570;2024-01-16T13:28:35;97492.59;;;4.12;56.55
84032;BME280;74113;46.556;24.570;2024-01-16T13:31:04;97499.66;;;4.12;56.40